sensor_id;sensor_type;location;lat;lon;timestamp;P1;durP1;ratioP1;P2;durP2;ratioP2
4424;SDS011;2225;53.568;13.266;2023-06-22T00:01:45;16.87;;;8.30;;
4424;SDS011;2225;53.568;13.266;2023-06-22T00:04:13;14.63;;;7.27;;
4424;SDS011;2225;53.568;13.266;2023-06-22T00:06:40;14.50;;;7.97;;
4424;SDS011;2225;53.568;13.266;2023-06-22T00:09:07;14.07;;;8.10;;
4424;SDS011;2225;53.568;13.266;2023-06-22T00:11:34;27.13;;;8.53;;
4424;SDS011;2225;53.568;13.266;2023-06-22T00:14:00;18.83;;;7.17;;
4424;SDS011;2225;53.568;13.266;2023-06-22T00:16:27;22.90;;;7.60;;
4424;SDS011;2225;53.568;13.266;2023-06-22T00:18:55;14.77;;;7.50;;
4424;SDS011;2225;53.568;13.266;2023-06-22T00:21:21;16.10;;;9.33;;
4424;SDS011;2225;53.568;13.266;2023-06-22T00:23:48;16.30;;;9.50;;
4424;SDS011;2225;53.568;13.266;2023-06-22T00:26:15;16.27;;;7.63;;
4424;SDS011;2225;53.568;13.266;2023-06-22T00:28:43;20.70;;;8.20;;
4424;SDS011;2225;53.568;13.266;2023-06-22T00:31:10;18.50;;;8.30;;
4424;SDS011;2225;53.568;13.266;2023-06-22T00:33:37;15.07;;;8.20;;
4424;SDS011;2225;53.568;13.266;2023-06-22T00:36:04;19.53;;;8.80;;
4424;SDS011;2225;53.568;13.266;2023-06-22T00:38:34;18.90;;;8.70;;
4424;SDS011;2225;53.568;13.266;2023-06-22T00:41:01;16.83;;;8.70;;
4424;SDS011;2225;53.568;13.266;2023-06-22T00:43:28;14.87;;;8.67;;
4424;SDS011;2225;53.568;13.266;2023-06-22T00:45:55;16.33;;;8.30;;
4424;SDS011;2225;53.568;13.266;2023-06-22T00:48:23;18.83;;;7.83;;
4424;SDS011;2225;53.568;13.266;2023-06-22T00:50:50;12.57;;;7.00;;
4424;SDS011;2225;53.568;13.266;2023-06-22T00:53:19;14.50;;;8.47;;
4424;SDS011;2225;53.568;13.266;2023-06-22T00:55:46;14.73;;;7.83;;
4424;SDS011;2225;53.568;13.266;2023-06-22T00:58:17;17.70;;;8.30;;
4424;SDS011;2225;53.568;13.266;2023-06-22T01:00:47;13.60;;;7.97;;
4424;SDS011;2225;53.568;13.266;2023-06-22T01:03:15;13.07;;;7.57;;
4424;SDS011;2225;53.568;13.266;2023-06-22T01:05:43;16.87;;;8.67;;
4424;SDS011;2225;53.568;13.266;2023-06-22T01:08:22;15.13;;;7.80;;
4424;SDS011;2225;53.568;13.266;2023-06-22T01:11:03;14.13;;;8.03;;
4424;SDS011;2225;53.568;13.266;2023-06-22T01:16:43;14.57;;;8.37;;
4424;SDS011;2225;53.568;13.266;2023-06-22T01:19:20;15.10;;;8.37;;
4424;SDS011;2225;53.568;13.266;2023-06-22T01:22:03;16.90;;;8.37;;
4424;SDS011;2225;53.568;13.266;2023-06-22T01:24:41;16.23;;;8.90;;
4424;SDS011;2225;53.568;13.266;2023-06-22T01:30:23;14.67;;;8.43;;
4424;SDS011;2225;53.568;13.266;2023-06-22T01:32:55;16.20;;;8.47;;
4424;SDS011;2225;53.568;13.266;2023-06-22T01:35:24;17.20;;;9.40;;
4424;SDS011;2225;53.568;13.266;2023-06-22T01:37:52;18.13;;;9.17;;
4424;SDS011;2225;53.568;13.266;2023-06-22T01:40:20;14.67;;;8.47;;
4424;SDS011;2225;53.568;13.266;2023-06-22T01:42:50;14.77;;;8.47;;
4424;SDS011;2225;53.568;13.266;2023-06-22T01:45:18;22.20;;;9.80;;
4424;SDS011;2225;53.568;13.266;2023-06-22T01:47:45;15.20;;;8.70;;
4424;SDS011;2225;53.568;13.266;2023-06-22T01:50:13;15.70;;;8.77;;
4424;SDS011;2225;53.568;13.266;2023-06-22T01:52:40;17.70;;;8.20;;
4424;SDS011;2225;53.568;13.266;2023-06-22T01:55:08;21.43;;;8.93;;
4424;SDS011;2225;53.568;13.266;2023-06-22T01:57:35;14.77;;;8.57;;
4424;SDS011;2225;53.568;13.266;2023-06-22T02:00:23;14.60;;;8.50;;
4424;SDS011;2225;53.568;13.266;2023-06-22T02:02:54;24.30;;;8.07;;
4424;SDS011;2225;53.568;13.266;2023-06-22T02:05:31;15.83;;;8.30;;
4424;SDS011;2225;53.568;13.266;2023-06-22T02:08:11;14.33;;;7.27;;
4424;SDS011;2225;53.568;13.266;2023-06-22T02:10:47;15.40;;;7.90;;
4424;SDS011;2225;53.568;13.266;2023-06-22T02:13:19;14.77;;;8.03;;
4424;SDS011;2225;53.568;13.266;2023-06-22T02:15:47;12.67;;;7.33;;
4424;SDS011;2225;53.568;13.266;2023-06-22T02:18:14;17.77;;;7.50;;
4424;SDS011;2225;53.568;13.266;2023-06-22T02:20:42;13.40;;;7.80;;
4424;SDS011;2225;53.568;13.266;2023-06-22T02:23:09;15.67;;;7.83;;
4424;SDS011;2225;53.568;13.266;2023-06-22T02:25:36;16.97;;;8.00;;
4424;SDS011;2225;53.568;13.266;2023-06-22T02:28:03;13.37;;;7.00;;
4424;SDS011;2225;53.568;13.266;2023-06-22T02:30:30;14.37;;;7.80;;
4424;SDS011;2225;53.568;13.266;2023-06-22T02:32:58;16.63;;;8.73;;
4424;SDS011;2225;53.568;13.266;2023-06-22T02:35:26;12.27;;;7.10;;
4424;SDS011;2225;53.568;13.266;2023-06-22T02:37:58;15.80;;;7.17;;
4424;SDS011;2225;53.568;13.266;2023-06-22T02:40:27;13.23;;;6.50;;
4424;SDS011;2225;53.568;13.266;2023-06-22T02:42:58;12.60;;;7.17;;
4424;SDS011;2225;53.568;13.266;2023-06-22T02:45:28;16.07;;;7.70;;
4424;SDS011;2225;53.568;13.266;2023-06-22T02:47:56;15.77;;;7.90;;
4424;SDS011;2225;53.568;13.266;2023-06-22T02:50:23;16.20;;;7.40;;
4424;SDS011;2225;53.568;13.266;2023-06-22T02:52:51;15.40;;;7.90;;
4424;SDS011;2225;53.568;13.266;2023-06-22T02:55:19;13.57;;;7.30;;
4424;SDS011;2225;53.568;13.266;2023-06-22T02:57:53;14.03;;;7.47;;
4424;SDS011;2225;53.568;13.266;2023-06-22T03:00:20;16.30;;;7.60;;
4424;SDS011;2225;53.568;13.266;2023-06-22T03:02:48;14.77;;;7.50;;
4424;SDS011;2225;53.568;13.266;2023-06-22T03:05:16;18.13;;;7.40;;
4424;SDS011;2225;53.568;13.266;2023-06-22T03:07:45;16.40;;;6.97;;
4424;SDS011;2225;53.568;13.266;2023-06-22T03:10:13;17.77;;;7.10;;
4424;SDS011;2225;53.568;13.266;2023-06-22T03:12:41;14.97;;;7.90;;
4424;SDS011;2225;53.568;13.266;2023-06-22T03:15:10;16.33;;;7.70;;
4424;SDS011;2225;53.568;13.266;2023-06-22T03:17:39;21.87;;;7.40;;
4424;SDS011;2225;53.568;13.266;2023-06-22T03:20:08;13.97;;;7.50;;
4424;SDS011;2225;53.568;13.266;2023-06-22T03:22:41;15.63;;;7.47;;
4424;SDS011;2225;53.568;13.266;2023-06-22T03:25:08;13.73;;;7.23;;
4424;SDS011;2225;53.568;13.266;2023-06-22T03:27:41;17.50;;;8.07;;
4424;SDS011;2225;53.568;13.266;2023-06-22T03:30:10;16.70;;;7.60;;
4424;SDS011;2225;53.568;13.266;2023-06-22T03:32:38;21.93;;;7.80;;
4424;SDS011;2225;53.568;13.266;2023-06-22T03:35:06;18.47;;;7.53;;
4424;SDS011;2225;53.568;13.266;2023-06-22T03:37:35;15.57;;;7.80;;
4424;SDS011;2225;53.568;13.266;2023-06-22T03:40:02;13.80;;;7.83;;
4424;SDS011;2225;53.568;13.266;2023-06-22T03:42:33;12.67;;;7.53;;
4424;SDS011;2225;53.568;13.266;2023-06-22T03:45:02;11.87;;;7.23;;
4424;SDS011;2225;53.568;13.266;2023-06-22T03:47:30;14.50;;;7.90;;
4424;SDS011;2225;53.568;13.266;2023-06-22T03:49:57;15.20;;;7.97;;
4424;SDS011;2225;53.568;13.266;2023-06-22T03:52:24;19.07;;;8.30;;
4424;SDS011;2225;53.568;13.266;2023-06-22T03:54:51;22.10;;;8.27;;
4424;SDS011;2225;53.568;13.266;2023-06-22T03:57:18;13.47;;;7.20;;
4424;SDS011;2225;53.568;13.266;2023-06-22T03:59:45;26.60;;;8.90;;
4424;SDS011;2225;53.568;13.266;2023-06-22T04:02:12;16.37;;;7.97;;
4424;SDS011;2225;53.568;13.266;2023-06-22T04:04:39;14.67;;;8.30;;
4424;SDS011;2225;53.568;13.266;2023-06-22T04:07:08;14.80;;;8.33;;
4424;SDS011;2225;53.568;13.266;2023-06-22T04:09:35;16.47;;;9.10;;
4424;SDS011;2225;53.568;13.266;2023-06-22T04:12:02;17.40;;;8.70;;
4424;SDS011;2225;53.568;13.266;2023-06-22T04:14:29;13.20;;;8.13;;
4424;SDS011;2225;53.568;13.266;2023-06-22T04:16:57;15.00;;;8.30;;
4424;SDS011;2225;53.568;13.266;2023-06-22T04:19:24;14.83;;;7.27;;
4424;SDS011;2225;53.568;13.266;2023-06-22T04:21:51;14.70;;;7.03;;
4424;SDS011;2225;53.568;13.266;2023-06-22T04:24:18;19.97;;;7.07;;
4424;SDS011;2225;53.568;13.266;2023-06-22T04:26:45;15.20;;;7.90;;
4424;SDS011;2225;53.568;13.266;2023-06-22T04:29:13;15.83;;;6.57;;
4424;SDS011;2225;53.568;13.266;2023-06-22T04:31:40;18.70;;;7.07;;
4424;SDS011;2225;53.568;13.266;2023-06-22T04:34:07;12.00;;;6.00;;
4424;SDS011;2225;53.568;13.266;2023-06-22T04:36:36;15.23;;;7.47;;
4424;SDS011;2225;53.568;13.266;2023-06-22T04:39:06;11.43;;;6.80;;
4424;SDS011;2225;53.568;13.266;2023-06-22T04:41:36;17.20;;;6.33;;
4424;SDS011;2225;53.568;13.266;2023-06-22T04:44:08;14.10;;;7.70;;
4424;SDS011;2225;53.568;13.266;2023-06-22T04:46:39;10.50;;;5.67;;
4424;SDS011;2225;53.568;13.266;2023-06-22T04:49:07;18.30;;;6.30;;
4424;SDS011;2225;53.568;13.266;2023-06-22T04:51:39;11.10;;;6.33;;
4424;SDS011;2225;53.568;13.266;2023-06-22T04:54:08;13.30;;;6.63;;
4424;SDS011;2225;53.568;13.266;2023-06-22T04:56:36;16.00;;;6.17;;
4424;SDS011;2225;53.568;13.266;2023-06-22T04:59:03;13.50;;;6.40;;
4424;SDS011;2225;53.568;13.266;2023-06-22T05:01:30;11.60;;;6.20;;
4424;SDS011;2225;53.568;13.266;2023-06-22T05:03:57;12.90;;;6.70;;
4424;SDS011;2225;53.568;13.266;2023-06-22T05:06:27;11.37;;;6.00;;
4424;SDS011;2225;53.568;13.266;2023-06-22T05:08:55;16.50;;;6.80;;
4424;SDS011;2225;53.568;13.266;2023-06-22T05:11:26;18.03;;;7.20;;
4424;SDS011;2225;53.568;13.266;2023-06-22T05:13:54;13.97;;;6.90;;
4424;SDS011;2225;53.568;13.266;2023-06-22T05:16:22;12.67;;;7.40;;
4424;SDS011;2225;53.568;13.266;2023-06-22T05:18:54;15.30;;;7.87;;
4424;SDS011;2225;53.568;13.266;2023-06-22T05:21:25;11.57;;;7.10;;
4424;SDS011;2225;53.568;13.266;2023-06-22T05:23:53;14.03;;;7.53;;
4424;SDS011;2225;53.568;13.266;2023-06-22T05:26:21;15.07;;;8.20;;
4424;SDS011;2225;53.568;13.266;2023-06-22T05:28:48;14.20;;;8.00;;
4424;SDS011;2225;53.568;13.266;2023-06-22T05:31:15;15.10;;;7.90;;
4424;SDS011;2225;53.568;13.266;2023-06-22T05:33:43;16.30;;;8.20;;
4424;SDS011;2225;53.568;13.266;2023-06-22T05:36:10;19.90;;;7.33;;
4424;SDS011;2225;53.568;13.266;2023-06-22T05:38:38;14.47;;;7.27;;
4424;SDS011;2225;53.568;13.266;2023-06-22T05:41:06;14.90;;;7.47;;
4424;SDS011;2225;53.568;13.266;2023-06-22T05:43:34;19.90;;;7.40;;
4424;SDS011;2225;53.568;13.266;2023-06-22T05:46:01;12.40;;;6.87;;
4424;SDS011;2225;53.568;13.266;2023-06-22T05:48:29;11.97;;;6.63;;
4424;SDS011;2225;53.568;13.266;2023-06-22T05:50:56;12.60;;;6.50;;
4424;SDS011;2225;53.568;13.266;2023-06-22T05:53:24;23.30;;;7.20;;
4424;SDS011;2225;53.568;13.266;2023-06-22T05:55:51;16.20;;;7.00;;
4424;SDS011;2225;53.568;13.266;2023-06-22T05:58:18;13.73;;;7.90;;
4424;SDS011;2225;53.568;13.266;2023-06-22T06:00:45;14.20;;;7.67;;
4424;SDS011;2225;53.568;13.266;2023-06-22T06:03:12;14.60;;;7.43;;
4424;SDS011;2225;53.568;13.266;2023-06-22T06:05:43;15.37;;;8.07;;
4424;SDS011;2225;53.568;13.266;2023-06-22T06:08:11;14.90;;;9.20;;
4424;SDS011;2225;53.568;13.266;2023-06-22T06:10:38;20.70;;;8.87;;
4424;SDS011;2225;53.568;13.266;2023-06-22T06:13:05;14.03;;;7.90;;
4424;SDS011;2225;53.568;13.266;2023-06-22T06:15:34;18.00;;;7.70;;
4424;SDS011;2225;53.568;13.266;2023-06-22T06:18:01;16.13;;;8.03;;
4424;SDS011;2225;53.568;13.266;2023-06-22T06:20:31;15.67;;;7.70;;
4424;SDS011;2225;53.568;13.266;2023-06-22T06:22:59;12.93;;;7.03;;
4424;SDS011;2225;53.568;13.266;2023-06-22T06:25:26;13.73;;;6.90;;
4424;SDS011;2225;53.568;13.266;2023-06-22T06:27:53;17.50;;;7.37;;
4424;SDS011;2225;53.568;13.266;2023-06-22T06:30:23;11.90;;;6.33;;
4424;SDS011;2225;53.568;13.266;2023-06-22T06:32:50;17.80;;;7.80;;
4424;SDS011;2225;53.568;13.266;2023-06-22T06:35:17;14.00;;;8.00;;
4424;SDS011;2225;53.568;13.266;2023-06-22T06:37:45;15.30;;;7.23;;
4424;SDS011;2225;53.568;13.266;2023-06-22T06:40:15;14.63;;;8.97;;
4424;SDS011;2225;53.568;13.266;2023-06-22T06:42:44;14.57;;;7.40;;
4424;SDS011;2225;53.568;13.266;2023-06-22T06:45:14;13.97;;;6.47;;
4424;SDS011;2225;53.568;13.266;2023-06-22T06:47:43;16.67;;;8.00;;
4424;SDS011;2225;53.568;13.266;2023-06-22T06:50:11;18.33;;;7.60;;
4424;SDS011;2225;53.568;13.266;2023-06-22T06:52:38;14.80;;;6.90;;
4424;SDS011;2225;53.568;13.266;2023-06-22T06:55:05;13.60;;;7.00;;
4424;SDS011;2225;53.568;13.266;2023-06-22T06:57:34;12.70;;;6.63;;
4424;SDS011;2225;53.568;13.266;2023-06-22T07:00:07;13.00;;;6.20;;
4424;SDS011;2225;53.568;13.266;2023-06-22T07:02:39;12.70;;;5.80;;
4424;SDS011;2225;53.568;13.266;2023-06-22T07:05:12;19.70;;;5.60;;
4424;SDS011;2225;53.568;13.266;2023-06-22T07:07:39;11.53;;;5.67;;
4424;SDS011;2225;53.568;13.266;2023-06-22T07:10:08;14.20;;;5.73;;
4424;SDS011;2225;53.568;13.266;2023-06-22T07:12:35;12.20;;;4.33;;
4424;SDS011;2225;53.568;13.266;2023-06-22T07:15:05;14.60;;;5.50;;
4424;SDS011;2225;53.568;13.266;2023-06-22T07:17:34;10.03;;;4.50;;
4424;SDS011;2225;53.568;13.266;2023-06-22T07:20:02;11.53;;;4.30;;
4424;SDS011;2225;53.568;13.266;2023-06-22T07:22:34;9.77;;;4.10;;
4424;SDS011;2225;53.568;13.266;2023-06-22T07:25:02;11.77;;;4.40;;
4424;SDS011;2225;53.568;13.266;2023-06-22T07:27:36;9.50;;;4.33;;
4424;SDS011;2225;53.568;13.266;2023-06-22T07:30:06;9.23;;;3.80;;
4424;SDS011;2225;53.568;13.266;2023-06-22T07:32:34;9.13;;;4.13;;
4424;SDS011;2225;53.568;13.266;2023-06-22T07:35:02;10.60;;;4.67;;
4424;SDS011;2225;53.568;13.266;2023-06-22T07:37:30;10.53;;;5.70;;
4424;SDS011;2225;53.568;13.266;2023-06-22T07:39:59;9.07;;;4.43;;
4424;SDS011;2225;53.568;13.266;2023-06-22T07:42:26;10.00;;;3.60;;
4424;SDS011;2225;53.568;13.266;2023-06-22T07:44:53;9.20;;;4.37;;
4424;SDS011;2225;53.568;13.266;2023-06-22T07:47:21;11.90;;;5.10;;
4424;SDS011;2225;53.568;13.266;2023-06-22T07:49:51;7.83;;;3.90;;
4424;SDS011;2225;53.568;13.266;2023-06-22T07:52:21;14.10;;;5.00;;
4424;SDS011;2225;53.568;13.266;2023-06-22T07:54:48;9.83;;;4.80;;
4424;SDS011;2225;53.568;13.266;2023-06-22T07:57:15;10.70;;;4.10;;
4424;SDS011;2225;53.568;13.266;2023-06-22T07:59:42;8.50;;;3.90;;
4424;SDS011;2225;53.568;13.266;2023-06-22T08:02:09;8.70;;;3.90;;
4424;SDS011;2225;53.568;13.266;2023-06-22T08:04:36;8.53;;;3.77;;
4424;SDS011;2225;53.568;13.266;2023-06-22T08:07:03;8.27;;;3.27;;
4424;SDS011;2225;53.568;13.266;2023-06-22T08:09:31;7.97;;;4.33;;
4424;SDS011;2225;53.568;13.266;2023-06-22T08:11:59;11.50;;;4.57;;
4424;SDS011;2225;53.568;13.266;2023-06-22T08:14:26;11.47;;;5.00;;
4424;SDS011;2225;53.568;13.266;2023-06-22T08:16:53;9.50;;;4.60;;
4424;SDS011;2225;53.568;13.266;2023-06-22T08:19:20;11.37;;;4.70;;
4424;SDS011;2225;53.568;13.266;2023-06-22T08:21:47;17.40;;;4.33;;
4424;SDS011;2225;53.568;13.266;2023-06-22T08:24:14;9.10;;;3.83;;
4424;SDS011;2225;53.568;13.266;2023-06-22T08:26:41;7.20;;;3.60;;
4424;SDS011;2225;53.568;13.266;2023-06-22T08:29:08;34.63;;;4.47;;
4424;SDS011;2225;53.568;13.266;2023-06-22T08:31:35;7.60;;;3.43;;
4424;SDS011;2225;53.568;13.266;2023-06-22T08:34:02;7.40;;;3.67;;
4424;SDS011;2225;53.568;13.266;2023-06-22T08:36:30;8.00;;;3.63;;
4424;SDS011;2225;53.568;13.266;2023-06-22T08:38:59;12.67;;;4.27;;
4424;SDS011;2225;53.568;13.266;2023-06-22T08:41:28;8.60;;;3.07;;
4424;SDS011;2225;53.568;13.266;2023-06-22T08:43:55;9.63;;;3.73;;
4424;SDS011;2225;53.568;13.266;2023-06-22T08:46:22;7.80;;;3.40;;
4424;SDS011;2225;53.568;13.266;2023-06-22T08:48:50;6.53;;;3.50;;
4424;SDS011;2225;53.568;13.266;2023-06-22T08:51:17;8.00;;;3.57;;
4424;SDS011;2225;53.568;13.266;2023-06-22T08:53:44;13.17;;;3.27;;
4424;SDS011;2225;53.568;13.266;2023-06-22T08:56:11;6.37;;;2.80;;
4424;SDS011;2225;53.568;13.266;2023-06-22T08:58:38;9.67;;;3.20;;
4424;SDS011;2225;53.568;13.266;2023-06-22T09:01:05;10.63;;;4.20;;
4424;SDS011;2225;53.568;13.266;2023-06-22T09:03:32;11.07;;;3.47;;
4424;SDS011;2225;53.568;13.266;2023-06-22T09:06:03;8.30;;;3.63;;
4424;SDS011;2225;53.568;13.266;2023-06-22T09:08:30;12.83;;;3.60;;
4424;SDS011;2225;53.568;13.266;2023-06-22T09:10:57;9.13;;;3.40;;
4424;SDS011;2225;53.568;13.266;2023-06-22T09:13:24;8.50;;;3.20;;
4424;SDS011;2225;53.568;13.266;2023-06-22T09:15:51;7.33;;;3.27;;
4424;SDS011;2225;53.568;13.266;2023-06-22T09:18:18;9.83;;;3.17;;
4424;SDS011;2225;53.568;13.266;2023-06-22T09:20:45;6.30;;;2.67;;
4424;SDS011;2225;53.568;13.266;2023-06-22T09:23:12;9.07;;;3.70;;
4424;SDS011;2225;53.568;13.266;2023-06-22T09:25:39;7.97;;;3.03;;
4424;SDS011;2225;53.568;13.266;2023-06-22T09:28:07;7.00;;;3.07;;
4424;SDS011;2225;53.568;13.266;2023-06-22T09:30:34;6.40;;;2.60;;
4424;SDS011;2225;53.568;13.266;2023-06-22T09:33:01;7.60;;;3.27;;
4424;SDS011;2225;53.568;13.266;2023-06-22T09:35:28;7.40;;;3.30;;
4424;SDS011;2225;53.568;13.266;2023-06-22T09:37:55;6.60;;;2.80;;
4424;SDS011;2225;53.568;13.266;2023-06-22T09:40:22;7.00;;;3.10;;
4424;SDS011;2225;53.568;13.266;2023-06-22T09:42:49;6.63;;;2.70;;
4424;SDS011;2225;53.568;13.266;2023-06-22T09:45:16;6.73;;;2.90;;
4424;SDS011;2225;53.568;13.266;2023-06-22T09:47:43;8.63;;;3.60;;
4424;SDS011;2225;53.568;13.266;2023-06-22T09:50:10;7.40;;;3.13;;
4424;SDS011;2225;53.568;13.266;2023-06-22T09:52:37;7.53;;;3.17;;
4424;SDS011;2225;53.568;13.266;2023-06-22T09:55:07;6.00;;;2.90;;
4424;SDS011;2225;53.568;13.266;2023-06-22T09:57:34;9.07;;;3.80;;
4424;SDS011;2225;53.568;13.266;2023-06-22T10:00:01;10.10;;;3.83;;
4424;SDS011;2225;53.568;13.266;2023-06-22T10:02:31;11.10;;;4.53;;
4424;SDS011;2225;53.568;13.266;2023-06-22T10:04:59;9.60;;;3.40;;
4424;SDS011;2225;53.568;13.266;2023-06-22T10:07:26;7.40;;;3.07;;
4424;SDS011;2225;53.568;13.266;2023-06-22T10:09:53;6.53;;;2.80;;
4424;SDS011;2225;53.568;13.266;2023-06-22T10:12:20;7.87;;;3.20;;
4424;SDS011;2225;53.568;13.266;2023-06-22T10:14:47;7.53;;;3.67;;
4424;SDS011;2225;53.568;13.266;2023-06-22T10:17:14;6.37;;;3.10;;
4424;SDS011;2225;53.568;13.266;2023-06-22T10:19:41;7.60;;;3.27;;
4424;SDS011;2225;53.568;13.266;2023-06-22T10:22:08;9.90;;;3.20;;
4424;SDS011;2225;53.568;13.266;2023-06-22T10:24:35;8.07;;;3.00;;
4424;SDS011;2225;53.568;13.266;2023-06-22T10:27:02;8.37;;;3.30;;
4424;SDS011;2225;53.568;13.266;2023-06-22T10:29:29;9.83;;;3.47;;
4424;SDS011;2225;53.568;13.266;2023-06-22T10:31:56;7.63;;;3.20;;
4424;SDS011;2225;53.568;13.266;2023-06-22T10:34:23;8.53;;;3.90;;
4424;SDS011;2225;53.568;13.266;2023-06-22T10:36:50;8.13;;;3.43;;
4424;SDS011;2225;53.568;13.266;2023-06-22T10:39:17;8.17;;;3.47;;
4424;SDS011;2225;53.568;13.266;2023-06-22T10:41:44;6.63;;;2.97;;
4424;SDS011;2225;53.568;13.266;2023-06-22T10:44:11;7.70;;;3.70;;
4424;SDS011;2225;53.568;13.266;2023-06-22T10:46:38;6.10;;;3.30;;
4424;SDS011;2225;53.568;13.266;2023-06-22T10:49:05;14.40;;;3.63;;
4424;SDS011;2225;53.568;13.266;2023-06-22T10:51:32;5.60;;;2.90;;
4424;SDS011;2225;53.568;13.266;2023-06-22T10:53:59;8.00;;;3.80;;
4424;SDS011;2225;53.568;13.266;2023-06-22T10:56:26;6.37;;;3.17;;
4424;SDS011;2225;53.568;13.266;2023-06-22T10:58:53;8.03;;;3.67;;
4424;SDS011;2225;53.568;13.266;2023-06-22T11:01:20;9.50;;;3.30;;
4424;SDS011;2225;53.568;13.266;2023-06-22T11:04:01;6.50;;;3.10;;
4424;SDS011;2225;53.568;13.266;2023-06-22T11:06:30;7.63;;;3.23;;
4424;SDS011;2225;53.568;13.266;2023-06-22T11:08:58;6.10;;;3.00;;
4424;SDS011;2225;53.568;13.266;2023-06-22T11:11:31;7.93;;;3.13;;
4424;SDS011;2225;53.568;13.266;2023-06-22T11:13:59;7.23;;;3.50;;
4424;SDS011;2225;53.568;13.266;2023-06-22T11:16:26;8.37;;;3.40;;
4424;SDS011;2225;53.568;13.266;2023-06-22T11:18:54;8.03;;;3.90;;
4424;SDS011;2225;53.568;13.266;2023-06-22T11:21:20;8.50;;;4.33;;
4424;SDS011;2225;53.568;13.266;2023-06-22T11:23:47;7.97;;;4.47;;
4424;SDS011;2225;53.568;13.266;2023-06-22T11:26:14;7.00;;;3.60;;
4424;SDS011;2225;53.568;13.266;2023-06-22T11:28:41;8.43;;;3.60;;
4424;SDS011;2225;53.568;13.266;2023-06-22T11:31:08;6.50;;;3.30;;
4424;SDS011;2225;53.568;13.266;2023-06-22T11:33:51;8.20;;;4.00;;
4424;SDS011;2225;53.568;13.266;2023-06-22T11:36:18;7.20;;;3.37;;
4424;SDS011;2225;53.568;13.266;2023-06-22T11:38:45;7.67;;;4.10;;
4424;SDS011;2225;53.568;13.266;2023-06-22T11:41:13;6.70;;;3.30;;
4424;SDS011;2225;53.568;13.266;2023-06-22T11:43:40;9.30;;;3.50;;
4424;SDS011;2225;53.568;13.266;2023-06-22T11:46:07;7.00;;;4.17;;
4424;SDS011;2225;53.568;13.266;2023-06-22T11:48:34;11.10;;;3.67;;
4424;SDS011;2225;53.568;13.266;2023-06-22T11:51:02;10.10;;;3.80;;
4424;SDS011;2225;53.568;13.266;2023-06-22T11:53:29;6.88;;;2.90;;
4424;SDS011;2225;53.568;13.266;2023-06-22T11:55:56;7.75;;;3.92;;
4424;SDS011;2225;53.568;13.266;2023-06-22T11:58:23;8.00;;;3.92;;
4424;SDS011;2225;53.568;13.266;2023-06-22T12:00:50;7.13;;;3.30;;
4424;SDS011;2225;53.568;13.266;2023-06-22T12:03:19;6.28;;;3.95;;
4424;SDS011;2225;53.568;13.266;2023-06-22T12:05:49;8.03;;;4.33;;
4424;SDS011;2225;53.568;13.266;2023-06-22T12:08:18;7.70;;;4.30;;
4424;SDS011;2225;53.568;13.266;2023-06-22T12:10:45;8.60;;;4.83;;
4424;SDS011;2225;53.568;13.266;2023-06-22T12:13:12;8.27;;;4.70;;
4424;SDS011;2225;53.568;13.266;2023-06-22T12:15:39;7.30;;;4.00;;
4424;SDS011;2225;53.568;13.266;2023-06-22T12:18:06;7.20;;;4.03;;
4424;SDS011;2225;53.568;13.266;2023-06-22T12:20:35;6.97;;;3.87;;
4424;SDS011;2225;53.568;13.266;2023-06-22T12:23:01;8.60;;;3.83;;
4424;SDS011;2225;53.568;13.266;2023-06-22T12:25:28;6.03;;;3.73;;
4424;SDS011;2225;53.568;13.266;2023-06-22T12:27:55;7.10;;;3.90;;
4424;SDS011;2225;53.568;13.266;2023-06-22T12:30:22;6.90;;;4.20;;
4424;SDS011;2225;53.568;13.266;2023-06-22T12:32:49;6.20;;;3.83;;
4424;SDS011;2225;53.568;13.266;2023-06-22T12:35:19;10.33;;;5.13;;
4424;SDS011;2225;53.568;13.266;2023-06-22T12:37:46;13.63;;;4.00;;
4424;SDS011;2225;53.568;13.266;2023-06-22T12:40:13;6.90;;;4.45;;
4424;SDS011;2225;53.568;13.266;2023-06-22T12:42:40;6.93;;;4.80;;
4424;SDS011;2225;53.568;13.266;2023-06-22T12:45:08;7.53;;;4.40;;
4424;SDS011;2225;53.568;13.266;2023-06-22T12:47:36;7.70;;;4.05;;
4424;SDS011;2225;53.568;13.266;2023-06-22T12:50:03;9.13;;;4.10;;
4424;SDS011;2225;53.568;13.266;2023-06-22T12:52:31;7.50;;;4.30;;
4424;SDS011;2225;53.568;13.266;2023-06-22T12:54:58;6.80;;;3.90;;
4424;SDS011;2225;53.568;13.266;2023-06-22T12:57:25;6.03;;;3.87;;
4424;SDS011;2225;53.568;13.266;2023-06-22T12:59:52;7.57;;;4.57;;
4424;SDS011;2225;53.568;13.266;2023-06-22T13:02:19;7.40;;;4.20;;
4424;SDS011;2225;53.568;13.266;2023-06-22T13:04:46;7.13;;;4.30;;
4424;SDS011;2225;53.568;13.266;2023-06-22T13:07:13;9.90;;;4.23;;
4424;SDS011;2225;53.568;13.266;2023-06-22T13:09:48;8.20;;;3.60;;
4424;SDS011;2225;53.568;13.266;2023-06-22T13:12:22;6.13;;;3.63;;
4424;SDS011;2225;53.568;13.266;2023-06-22T13:14:49;7.00;;;4.45;;
4424;SDS011;2225;53.568;13.266;2023-06-22T13:17:16;9.23;;;3.80;;
4424;SDS011;2225;53.568;13.266;2023-06-22T13:19:43;8.85;;;4.28;;
4424;SDS011;2225;53.568;13.266;2023-06-22T13:22:25;8.48;;;4.55;;
4424;SDS011;2225;53.568;13.266;2023-06-22T13:25:06;5.85;;;3.72;;
4424;SDS011;2225;53.568;13.266;2023-06-22T13:27:33;6.75;;;3.40;;
4424;SDS011;2225;53.568;13.266;2023-06-22T13:30:00;7.65;;;3.60;;
4424;SDS011;2225;53.568;13.266;2023-06-22T13:32:28;6.60;;;4.10;;
4424;SDS011;2225;53.568;13.266;2023-06-22T13:34:55;6.45;;;3.55;;
4424;SDS011;2225;53.568;13.266;2023-06-22T13:37:22;6.93;;;3.35;;
4424;SDS011;2225;53.568;13.266;2023-06-22T13:39:49;7.20;;;4.13;;
4424;SDS011;2225;53.568;13.266;2023-06-22T13:42:16;10.23;;;3.87;;
4424;SDS011;2225;53.568;13.266;2023-06-22T13:44:43;8.63;;;4.20;;
4424;SDS011;2225;53.568;13.266;2023-06-22T13:47:10;7.37;;;4.07;;
4424;SDS011;2225;53.568;13.266;2023-06-22T13:49:37;9.73;;;4.13;;
4424;SDS011;2225;53.568;13.266;2023-06-22T13:52:04;7.17;;;3.73;;
4424;SDS011;2225;53.568;13.266;2023-06-22T13:54:36;6.90;;;4.07;;
4424;SDS011;2225;53.568;13.266;2023-06-22T13:57:03;8.30;;;3.97;;
4424;SDS011;2225;53.568;13.266;2023-06-22T13:59:31;8.00;;;3.70;;
4424;SDS011;2225;53.568;13.266;2023-06-22T14:01:58;7.97;;;4.33;;
4424;SDS011;2225;53.568;13.266;2023-06-22T14:04:24;6.77;;;4.30;;
4424;SDS011;2225;53.568;13.266;2023-06-22T14:06:51;7.53;;;4.17;;
4424;SDS011;2225;53.568;13.266;2023-06-22T14:09:22;7.60;;;4.33;;
4424;SDS011;2225;53.568;13.266;2023-06-22T14:11:49;6.63;;;3.90;;
4424;SDS011;2225;53.568;13.266;2023-06-22T14:14:16;6.80;;;3.87;;
4424;SDS011;2225;53.568;13.266;2023-06-22T14:16:43;7.17;;;3.93;;
4424;SDS011;2225;53.568;13.266;2023-06-22T14:19:10;9.33;;;4.50;;
4424;SDS011;2225;53.568;13.266;2023-06-22T14:21:37;6.43;;;3.93;;
4424;SDS011;2225;53.568;13.266;2023-06-22T14:24:04;12.73;;;4.57;;
4424;SDS011;2225;53.568;13.266;2023-06-22T14:26:31;6.83;;;3.77;;
4424;SDS011;2225;53.568;13.266;2023-06-22T14:28:58;7.23;;;4.23;;
4424;SDS011;2225;53.568;13.266;2023-06-22T14:31:25;9.10;;;4.90;;
4424;SDS011;2225;53.568;13.266;2023-06-22T14:33:52;6.73;;;3.83;;
4424;SDS011;2225;53.568;13.266;2023-06-22T14:36:19;7.13;;;4.23;;
4424;SDS011;2225;53.568;13.266;2023-06-22T14:38:46;8.20;;;4.80;;
4424;SDS011;2225;53.568;13.266;2023-06-22T14:41:13;6.87;;;4.47;;
4424;SDS011;2225;53.568;13.266;2023-06-22T14:43:44;7.17;;;4.40;;
4424;SDS011;2225;53.568;13.266;2023-06-22T14:46:17;8.80;;;4.70;;
4424;SDS011;2225;53.568;13.266;2023-06-22T14:48:45;6.63;;;4.27;;
4424;SDS011;2225;53.568;13.266;2023-06-22T14:51:13;8.57;;;4.00;;
4424;SDS011;2225;53.568;13.266;2023-06-22T14:53:43;6.80;;;4.80;;
4424;SDS011;2225;53.568;13.266;2023-06-22T14:56:11;5.63;;;3.70;;
4424;SDS011;2225;53.568;13.266;2023-06-22T14:58:40;7.37;;;4.33;;
4424;SDS011;2225;53.568;13.266;2023-06-22T15:01:11;9.10;;;5.10;;
4424;SDS011;2225;53.568;13.266;2023-06-22T15:03:39;7.27;;;4.57;;
4424;SDS011;2225;53.568;13.266;2023-06-22T15:06:06;8.00;;;5.13;;